Time;durP1;ratioP1;P1;durP2;ratioP2;P2;SDS_P1;SDS_P2;PMS_P1;PMS_P2;Temp;Humidity;BMP_temperature;BMP_pressure;BME280_temperature;BME280_humidity;BME280_pressure;Samples;Min_cycle;Max_cycle;Signal;HPM_P1;HPM_P2
2024/01/17 00:00:42;;;;;;;18.33;9.17;;;1.30;99.90;;;;;;5023195;28;20422;-67
2024/01/17 00:03:08;;;;;;;15.57;10.10;;;1.30;99.90;;;;;;5029044;28;20466;-67
2024/01/17 00:05:34;;;;;;;15.33;9.90;;;1.30;99.90;;;;;;5017364;28;20739;-67
2024/01/17 00:07:59;;;;;;;16.23;9.70;;;1.20;99.90;;;;;;5016643;28;20254;-67
2024/01/17 00:10:25;;;;;;;12.90;8.97;;;1.20;99.90;;;;;;5022986;28;20448;-67
2024/01/17 00:12:50;;;;;;;11.00;8.50;;;1.20;99.90;;;;;;5021501;28;20185;-67
2024/01/17 00:15:18;;;;;;;16.03;9.73;;;1.20;99.90;;;;;;5019862;28;20185;-67
2024/01/17 00:17:44;;;;;;;11.90;8.17;;;1.10;99.90;;;;;;5014312;28;20189;-67
2024/01/17 00:20:10;;;;;;;16.23;8.70;;;1.10;99.90;;;;;;5015770;28;20431;-67
2024/01/17 00:22:35;;;;;;;18.50;7.90;;;1.20;99.90;;;;;;5014615;28;20507;-67
2024/01/17 00:25:01;;;;;;;15.03;9.63;;;1.10;99.90;;;;;;5022088;28;20208;-67
2024/01/17 00:27:26;;;;;;;13.00;9.30;;;1.20;99.90;;;;;;5017479;28;20215;-67
2024/01/17 00:29:57;;;;;;;17.33;9.10;;;1.20;99.90;;;;;;5024668;28;20229;-67
2024/01/17 00:32:23;;;;;;;17.03;9.70;;;1.20;99.90;;;;;;5021407;28;20650;-67
2024/01/17 00:34:49;;;;;;;15.20;9.37;;;1.20;99.90;;;;;;5018454;28;20425;-67
2024/01/17 00:37:14;;;;;;;18.70;10.60;;;1.20;99.90;;;;;;5015853;28;20440;-67
2024/01/17 00:39:40;;;;;;;12.60;9.23;;;1.20;99.90;;;;;;5012444;28;20217;-67
2024/01/17 00:42:06;;;;;;;14.30;9.20;;;1.20;99.90;;;;;;5013344;28;20281;-67
2024/01/17 00:44:31;;;;;;;12.93;8.97;;;1.20;99.90;;;;;;5014541;28;20238;-67
2024/01/17 00:46:57;;;;;;;14.77;10.30;;;1.20;99.90;;;;;;5028129;28;20596;-67
2024/01/17 00:49:23;;;;;;;13.40;9.13;;;1.20;99.90;;;;;;5022016;28;20185;-67
2024/01/17 00:51:48;;;;;;;15.83;10.70;;;1.30;99.90;;;;;;5009440;28;20208;-67
2024/01/17 00:54:14;;;;;;;15.40;8.90;;;1.30;99.90;;;;;;5010605;28;20204;-67
2024/01/17 00:56:39;;;;;;;13.30;9.53;;;1.30;99.90;;;;;;5022718;28;20188;-67
2024/01/17 00:59:05;;;;;;;15.43;9.50;;;1.40;99.90;;;;;;5012341;28;20215;-67
2024/01/17 01:01:30;;;;;;;18.27;10.30;;;1.40;99.90;;;;;;5016951;28;20192;-67
2024/01/17 01:03:56;;;;;;;14.30;9.13;;;1.40;99.90;;;;;;5015158;28;20299;-67
2024/01/17 01:06:22;;;;;;;17.80;9.80;;;1.40;99.90;;;;;;5014130;28;20215;-67
2024/01/17 01:08:48;;;;;;;16.47;9.43;;;1.40;99.90;;;;;;5011410;28;20234;-67
2024/01/17 01:11:13;;;;;;;15.83;10.87;;;1.40;99.90;;;;;;5014891;28;20207;-67
2024/01/17 01:13:39;;;;;;;23.43;11.90;;;1.40;99.90;;;;;;5013607;28;20962;-67
2024/01/17 01:16:05;;;;;;;15.87;10.80;;;1.40;99.90;;;;;;5020018;28;20247;-67
2024/01/17 01:18:30;;;;;;;20.63;12.73;;;1.40;99.90;;;;;;5013386;28;20199;-67
2024/01/17 01:20:57;;;;;;;19.70;11.53;;;1.40;99.90;;;;;;5015598;28;20561;-67
2024/01/17 01:23:24;;;;;;;18.97;10.43;;;1.40;99.90;;;;;;5015218;28;20897;-67
2024/01/17 01:25:50;;;;;;;15.33;10.30;;;1.40;99.90;;;;;;5014001;28;20496;-66
2024/01/17 01:28:16;;;;;;;19.90;10.73;;;1.40;99.90;;;;;;5018462;28;20437;-67
2024/01/17 01:30:42;;;;;;;16.37;11.07;;;1.40;99.90;;;;;;5019258;28;20416;-67
2024/01/17 01:33:07;;;;;;;20.50;12.23;;;1.30;99.90;;;;;;5017939;28;20185;-67
2024/01/17 01:35:33;;;;;;;19.30;11.93;;;1.40;99.90;;;;;;5014163;28;20777;-67
2024/01/17 01:37:59;;;;;;;16.77;11.60;;;1.30;99.90;;;;;;5022710;28;20208;-67
2024/01/17 01:40:24;;;;;;;15.37;11.00;;;1.40;99.90;;;;;;5018477;28;20195;-67
2024/01/17 01:42:50;;;;;;;19.23;10.63;;;1.40;99.90;;;;;;5009934;28;20196;-67
2024/01/17 01:45:16;;;;;;;16.67;11.37;;;1.40;99.90;;;;;;5011035;28;20191;-67
2024/01/17 01:47:42;;;;;;;15.37;10.07;;;1.40;99.90;;;;;;5009282;28;20220;-67
2024/01/17 01:50:10;;;;;;;14.30;10.13;;;1.40;99.90;;;;;;5012702;28;20424;-67
2024/01/17 01:52:39;;;;;;;16.13;9.87;;;1.50;99.90;;;;;;5011704;28;20447;-67
2024/01/17 01:55:06;;;;;;;18.57;11.10;;;1.50;99.90;;;;;;5020247;28;20448;-66
2024/01/17 01:57:36;;;;;;;16.00;10.30;;;1.50;99.90;;;;;;5017396;28;20432;-67
2024/01/17 02:00:04;;;;;;;13.93;9.20;;;1.50;99.90;;;;;;5023200;28;20505;-67
2024/01/17 02:02:31;;;;;;;15.20;9.27;;;1.50;99.90;;;;;;5018114;28;20511;-67
2024/01/17 02:04:57;;;;;;;13.80;8.50;;;1.50;99.90;;;;;;5012489;28;20836;-67
2024/01/17 02:07:25;;;;;;;12.37;9.13;;;1.50;99.90;;;;;;5021187;28;20467;-67
2024/01/17 02:09:50;;;;;;;16.67;8.50;;;1.50;99.90;;;;;;5018769;28;20426;-67
2024/01/17 02:12:16;;;;;;;14.23;9.53;;;1.60;99.90;;;;;;5016339;28;20445;-67
2024/01/17 02:14:42;;;;;;;14.90;8.53;;;1.60;99.90;;;;;;5016647;28;20727;-67
2024/01/17 02:17:08;;;;;;;11.40;7.83;;;1.60;99.90;;;;;;5016664;28;20276;-67
2024/01/17 02:19:35;;;;;;;12.20;8.27;;;1.60;99.90;;;;;;5022087;28;20276;-67
2024/01/17 02:22:01;;;;;;;10.43;7.53;;;1.60;99.90;;;;;;5008769;28;20453;-67
2024/01/17 02:24:28;;;;;;;11.60;7.93;;;1.60;99.90;;;;;;5013345;28;20454;-67
2024/01/17 02:26:54;;;;;;;15.10;8.10;;;1.70;99.90;;;;;;5018005;28;20369;-67
2024/01/17 02:29:20;;;;;;;11.97;8.40;;;1.70;99.90;;;;;;5016132;28;20803;-67
2024/01/17 02:31:46;;;;;;;13.43;7.87;;;1.70;99.90;;;;;;5017163;28;20441;-67
2024/01/17 02:34:12;;;;;;;11.43;6.77;;;1.70;99.90;;;;;;5011224;28;20479;-67
2024/01/17 02:36:38;;;;;;;11.03;7.90;;;1.70;99.90;;;;;;5019790;28;20977;-67
2024/01/17 02:39:04;;;;;;;11.67;8.30;;;1.70;99.90;;;;;;5015955;28;20573;-67
2024/01/17 02:41:30;;;;;;;13.20;7.30;;;1.70;99.90;;;;;;5014014;28;20180;-67
2024/01/17 02:43:56;;;;;;;12.33;8.00;;;1.70;99.90;;;;;;5011890;28;21308;-67
2024/01/17 02:46:25;;;;;;;14.37;7.73;;;1.70;99.90;;;;;;5011601;28;20662;-67
2024/01/17 02:48:52;;;;;;;14.93;7.63;;;1.70;99.90;;;;;;5014904;28;20769;-67
2024/01/17 02:51:17;;;;;;;9.20;6.83;;;1.60;99.90;;;;;;5014533;28;20459;-67
2024/01/17 02:53:43;;;;;;;10.57;6.83;;;1.60;99.90;;;;;;5016401;28;20491;-67
2024/01/17 02:56:08;;;;;;;11.20;7.60;;;1.70;99.90;;;;;;5010639;28;20183;-67
2024/01/17 02:58:34;;;;;;;11.87;7.00;;;1.70;99.90;;;;;;5017069;28;20188;-68
2024/01/17 03:00:59;;;;;;;12.83;8.73;;;1.60;99.90;;;;;;5015279;28;20199;-67
2024/01/17 03:03:25;;;;;;;15.80;9.50;;;1.50;99.90;;;;;;5011845;28;20241;-67
2024/01/17 03:05:50;;;;;;;12.80;8.20;;;1.50;99.90;;;;;;5012679;28;20247;-67
2024/01/17 03:08:16;;;;;;;17.33;9.70;;;1.50;99.90;;;;;;5019482;28;20258;-67
2024/01/17 03:10:42;;;;;;;13.13;9.43;;;1.60;99.90;;;;;;5015681;28;20194;-68
2024/01/17 03:13:08;;;;;;;13.17;9.57;;;1.50;99.90;;;;;;5011431;28;20740;-67
2024/01/17 03:15:34;;;;;;;17.47;10.63;;;1.40;99.90;;;;;;5017092;28;20188;-67
2024/01/17 03:18:00;;;;;;;18.53;11.00;;;1.30;99.90;;;;;;5016128;28;20418;-67
2024/01/17 03:20:27;;;;;;;17.27;10.80;;;1.20;99.90;;;;;;5016846;28;21011;-67
2024/01/17 03:22:53;;;;;;;16.43;10.60;;;1.20;99.90;;;;;;5018575;28;20529;-68
2024/01/17 03:25:19;;;;;;;21.17;9.73;;;1.10;99.90;;;;;;5020137;28;20300;-67
2024/01/17 03:27:45;;;;;;;20.53;11.10;;;1.10;99.90;;;;;;5011550;28;20577;-67
2024/01/17 03:30:11;;;;;;;13.90;10.40;;;1.20;99.90;;;;;;5017309;28;20187;-67
2024/01/17 03:32:36;;;;;;;20.07;10.50;;;1.20;99.90;;;;;;5015346;28;20275;-67
2024/01/17 03:35:02;;;;;;;16.97;11.40;;;1.30;99.90;;;;;;5022809;28;20509;-67
2024/01/17 03:37:28;;;;;;;15.37;10.07;;;1.20;99.90;;;;;;5021448;28;20199;-67
2024/01/17 03:39:53;;;;;;;18.07;10.13;;;1.10;99.90;;;;;;5023061;28;20199;-67
2024/01/17 03:42:19;;;;;;;14.53;10.83;;;1.00;99.90;;;;;;5019252;28;20191;-67
2024/01/17 03:44:45;;;;;;;14.67;9.70;;;0.90;99.90;;;;;;5030269;28;20208;-68
2024/01/17 03:47:12;;;;;;;15.30;9.70;;;0.90;99.90;;;;;;5021205;28;20442;-67
2024/01/17 03:49:38;;;;;;;16.43;10.03;;;1.00;99.90;;;;;;5015495;28;20431;-67
2024/01/17 03:52:05;;;;;;;18.63;10.10;;;1.00;99.90;;;;;;5020398;28;20423;-67
2024/01/17 03:54:30;;;;;;;15.43;9.93;;;1.10;99.90;;;;;;5014907;28;20439;-67
2024/01/17 03:56:56;;;;;;;15.10;10.13;;;1.20;99.90;;;;;;5017372;28;20440;-67
2024/01/17 03:59:22;;;;;;;18.00;10.37;;;1.20;99.90;;;;;;5017095;28;20470;-67
2024/01/17 04:01:47;;;;;;;14.90;10.70;;;1.20;99.90;;;;;;5024652;28;20286;-67
2024/01/17 04:04:13;;;;;;;21.67;10.20;;;1.20;99.90;;;;;;5019359;28;20205;-67
2024/01/17 04:06:40;;;;;;;17.43;10.00;;;1.20;99.90;;;;;;5017995;28;20219;-67
2024/01/17 04:09:06;;;;;;;19.43;9.57;;;1.20;99.90;;;;;;5020948;28;20937;-67
2024/01/17 04:11:31;;;;;;;17.57;10.17;;;1.30;99.90;;;;;;5019536;28;20424;-67
2024/01/17 04:13:57;;;;;;;10.90;8.20;;;1.30;99.90;;;;;;5019519;28;21429;-67
2024/01/17 04:16:23;;;;;;;14.10;9.53;;;1.30;99.90;;;;;;5019383;28;20226;-67
2024/01/17 04:18:48;;;;;;;13.63;8.43;;;1.30;99.90;;;;;;5024194;28;20188;-67
2024/01/17 04:21:20;;;;;;;18.30;9.70;;;1.40;99.90;;;;;;5023834;28;20241;-67
2024/01/17 04:23:49;;;;;;;14.57;8.77;;;1.40;99.90;;;;;;5023076;28;20569;-67
2024/01/17 04:26:21;;;;;;;16.20;8.63;;;1.40;99.90;;;;;;5014602;28;20472;-67
2024/01/17 04:28:47;;;;;;;15.83;9.20;;;1.40;99.90;;;;;;5001889;28;20423;-67
2024/01/17 04:31:22;;;;;;;15.67;9.87;;;1.50;99.90;;;;;;5016224;28;21943;-67
2024/01/17 04:33:47;;;;;;;10.97;7.87;;;1.50;99.90;;;;;;5012643;28;21255;-67
2024/01/17 04:36:16;;;;;;;16.53;8.80;;;1.40;99.90;;;;;;5011690;28;20419;-67
2024/01/17 04:38:42;;;;;;;11.70;8.07;;;1.50;99.90;;;;;;5019624;28;20283;-67
2024/01/17 04:41:09;;;;;;;11.43;8.33;;;1.50;99.90;;;;;;5010650;28;20419;-67
2024/01/17 04:43:34;;;;;;;9.90;7.03;;;1.50;99.90;;;;;;5012931;28;20454;-66
2024/01/17 04:46:01;;;;;;;14.93;8.20;;;1.50;99.90;;;;;;5015350;28;20443;-66
2024/01/17 04:48:26;;;;;;;12.50;7.80;;;1.50;99.90;;;;;;5012089;28;20607;-66
2024/01/17 04:50:52;;;;;;;11.50;6.97;;;1.50;99.90;;;;;;5014228;28;20435;-67
2024/01/17 04:53:18;;;;;;;11.00;8.00;;;1.50;99.90;;;;;;5016860;28;20256;-67
2024/01/17 04:55:43;;;;;;;10.63;7.27;;;1.50;99.90;;;;;;5017880;28;20426;-67
2024/01/17 04:58:09;;;;;;;13.80;8.07;;;1.60;99.90;;;;;;5019933;28;20182;-67
2024/01/17 05:00:34;;;;;;;15.27;7.40;;;1.60;99.90;;;;;;5010637;28;20177;-67
2024/01/17 05:03:00;;;;;;;9.33;6.00;;;1.60;99.90;;;;;;5010328;28;20661;-67
2024/01/17 05:05:26;;;;;;;10.23;7.30;;;1.60;99.90;;;;;;5011458;28;20188;-67
2024/01/17 05:07:52;;;;;;;14.17;7.40;;;1.60;99.90;;;;;;5014637;28;20211;-67
2024/01/17 05:10:17;;;;;;;18.13;7.67;;;1.60;99.90;;;;;;5011498;28;20434;-67
2024/01/17 05:12:43;;;;;;;8.50;6.83;;;1.60;99.90;;;;;;5005619;28;20556;-66
2024/01/17 05:15:09;;;;;;;12.73;6.33;;;1.60;99.90;;;;;;5015978;28;21066;-66
2024/01/17 05:17:34;;;;;;;8.67;6.40;;;1.60;99.90;;;;;;5012310;28;20185;-67
2024/01/17 05:20:00;;;;;;;13.00;6.47;;;1.60;99.90;;;;;;5009518;28;20182;-67
2024/01/17 05:22:25;;;;;;;11.20;7.30;;;1.70;99.90;;;;;;5010018;28;20192;-67
2024/01/17 05:24:51;;;;;;;15.90;7.40;;;1.70;99.90;;;;;;5010511;28;20251;-67
2024/01/17 05:27:17;;;;;;;10.83;6.90;;;1.70;99.90;;;;;;5007809;28;20200;-67
2024/01/17 05:29:44;;;;;;;10.53;7.50;;;1.70;99.90;;;;;;5014187;28;20180;-67
2024/01/17 05:32:10;;;;;;;12.90;8.30;;;1.70;99.90;;;;;;5013375;28;20800;-67
2024/01/17 05:34:37;;;;;;;13.20;8.77;;;1.80;99.90;;;;;;5010545;28;20435;-67
2024/01/17 05:37:03;;;;;;;12.60;8.93;;;1.80;99.90;;;;;;5011437;28;20468;-67
2024/01/17 05:39:28;;;;;;;11.83;9.30;;;1.80;99.90;;;;;;5010618;28;20905;-67
2024/01/17 05:41:54;;;;;;;11.50;9.20;;;1.70;99.90;;;;;;5018423;28;20416;-67
2024/01/17 05:44:20;;;;;;;13.27;9.07;;;1.70;99.90;;;;;;5010265;28;20282;-66
2024/01/17 05:46:45;;;;;;;16.43;9.47;;;1.70;99.90;;;;;;5012099;28;20265;-66
2024/01/17 05:49:11;;;;;;;16.60;9.50;;;1.70;99.90;;;;;;5010173;28;20553;-66
2024/01/17 05:51:36;;;;;;;15.70;9.60;;;1.70;99.90;;;;;;5012849;28;20275;-67
2024/01/17 05:54:02;;;;;;;15.70;9.30;;;1.60;99.90;;;;;;5010303;28;20192;-66
2024/01/17 05:56:28;;;;;;;18.40;10.10;;;1.70;99.90;;;;;;5010723;28;20265;-67
2024/01/17 05:58:53;;;;;;;14.63;10.40;;;1.70;99.90;;;;;;5010924;28;20646;-66
2024/01/17 06:01:21;;;;;;;16.90;10.73;;;1.70;99.90;;;;;;5008179;28;20196;-66
2024/01/17 06:03:46;;;;;;;20.90;11.70;;;1.70;99.90;;;;;;5011986;28;20218;-66
2024/01/17 06:06:12;;;;;;;17.87;10.60;;;1.70;99.90;;;;;;5009396;28;20455;-66
2024/01/17 06:08:37;;;;;;;16.60;11.03;;;1.70;99.90;;;;;;5011031;28;21216;-66
2024/01/17 06:11:03;;;;;;;16.20;10.57;;;1.70;99.90;;;;;;5013545;28;20218;-66
2024/01/17 06:13:29;;;;;;;15.97;11.50;;;1.70;99.90;;;;;;5014190;28;20267;-66
2024/01/17 06:15:55;;;;;;;17.83;11.97;;;1.70;99.90;;;;;;5023324;28;20299;-66
2024/01/17 06:18:20;;;;;;;18.67;12.67;;;1.70;99.90;;;;;;5019141;28;20644;-66
2024/01/17 06:20:47;;;;;;;14.70;10.43;;;1.70;99.90;;;;;;5020243;28;20649;-67
2024/01/17 06:23:12;;;;;;;17.37;11.47;;;1.70;99.90;;;;;;5026131;28;20608;-67
2024/01/17 06:25:38;;;;;;;18.43;12.63;;;1.80;99.90;;;;;;5022658;28;20503;-67
2024/01/17 06:28:04;;;;;;;20.60;12.70;;;1.80;99.90;;;;;;5022362;28;20211;-67
2024/01/17 06:30:29;;;;;;;18.07;12.10;;;1.80;99.90;;;;;;5019350;28;20180;-67
2024/01/17 06:32:55;;;;;;;19.10;11.53;;;1.80;99.90;;;;;;5015509;28;20188;-67
2024/01/17 06:35:21;;;;;;;17.23;12.60;;;1.80;99.90;;;;;;5018661;28;20176;-66
2024/01/17 06:37:46;;;;;;;17.40;12.10;;;1.80;99.90;;;;;;5015635;28;20180;-66
2024/01/17 06:40:12;;;;;;;15.00;11.13;;;1.80;99.90;;;;;;5019611;28;20665;-66
2024/01/17 06:42:38;;;;;;;18.83;12.03;;;1.80;99.90;;;;;;5016080;28;20884;-67
2024/01/17 06:45:04;;;;;;;16.67;12.97;;;1.80;99.90;;;;;;5023045;28;20209;-67
2024/01/17 06:47:30;;;;;;;20.07;13.07;;;1.80;99.90;;;;;;5011176;28;20566;-66
2024/01/17 06:49:55;;;;;;;19.17;13.37;;;1.80;99.90;;;;;;5018049;28;20641;-67
2024/01/17 06:52:21;;;;;;;17.90;12.40;;;1.80;99.90;;;;;;5014891;28;20192;-67
2024/01/17 06:54:47;;;;;;;25.13;13.07;;;1.80;99.90;;;;;;5016084;28;20227;-67
2024/01/17 06:57:12;;;;;;;18.33;12.50;;;1.80;99.90;;;;;;5017723;28;20526;-67
2024/01/17 06:59:38;;;;;;;20.80;13.40;;;1.80;99.90;;;;;;5016782;28;20285;-67
2024/01/17 07:02:03;;;;;;;20.80;12.57;;;1.80;99.90;;;;;;5024331;28;20188;-67
2024/01/17 07:04:29;;;;;;;19.70;12.40;;;1.80;99.90;;;;;;5018442;28;20203;-66
2024/01/17 07:06:55;;;;;;;18.30;13.10;;;1.80;99.90;;;;;;5009842;28;20206;-67
2024/01/17 07:09:20;;;;;;;19.97;13.37;;;1.80;99.90;;;;;;5019209;28;20653;-67
2024/01/17 07:11:46;;;;;;;18.40;12.70;;;1.80;99.90;;;;;;5022399;28;20195;-67
2024/01/17 07:14:11;;;;;;;21.37;13.47;;;1.80;99.90;;;;;;5024826;28;20204;-67
2024/01/17 07:16:37;;;;;;;19.67;13.10;;;1.80;99.90;;;;;;5024522;28;20199;-67
2024/01/17 07:19:03;;;;;;;21.63;13.93;;;1.80;99.90;;;;;;5022712;28;20187;-67
2024/01/17 07:21:28;;;;;;;19.80;13.47;;;1.80;99.90;;;;;;5022836;28;20192;-67
2024/01/17 07:23:54;;;;;;;20.30;13.43;;;1.80;99.90;;;;;;5027952;28;20448;-67
2024/01/17 07:26:20;;;;;;;18.50;13.43;;;1.70;99.90;;;;;;5019836;28;20741;-66
2024/01/17 07:28:45;;;;;;;20.73;13.43;;;1.80;99.90;;;;;;5021709;28;20192;-65
2024/01/17 07:31:11;;;;;;;31.23;15.10;;;1.80;99.90;;;;;;5020252;28;20182;-65
2024/01/17 07:33:36;;;;;;;18.50;14.63;;;1.80;99.90;;;;;;5026758;28;20204;-65
2024/01/17 07:36:02;;;;;;;20.60;14.40;;;1.80;99.90;;;;;;5021412;28;20204;-65
2024/01/17 07:38:28;;;;;;;25.80;16.03;;;1.80;99.90;;;;;;5023160;28;20271;-65
2024/01/17 07:40:53;;;;;;;23.90;15.30;;;1.80;99.90;;;;;;5021827;28;20629;-66
2024/01/17 07:43:19;;;;;;;19.60;13.97;;;1.80;99.90;;;;;;5023290;28;20203;-65
2024/01/17 07:45:45;;;;;;;21.53;14.23;;;1.80;99.90;;;;;;5023119;28;20186;-66
2024/01/17 07:48:11;;;;;;;21.93;15.10;;;1.80;99.90;;;;;;5021993;28;20510;-66
2024/01/17 07:50:36;;;;;;;24.80;15.53;;;1.80;99.90;;;;;;5018049;28;20243;-67
2024/01/17 07:53:02;;;;;;;19.63;14.30;;;1.80;99.90;;;;;;5019381;28;20419;-66
2024/01/17 07:55:28;;;;;;;22.27;13.33;;;1.90;99.90;;;;;;5020383;28;20187;-66
2024/01/17 07:57:54;;;;;;;23.30;15.30;;;1.90;99.90;;;;;;5020223;28;20657;-65
2024/01/17 08:00:19;;;;;;;25.80;16.40;;;1.90;99.90;;;;;;5024626;28;20446;-65
2024/01/17 08:02:45;;;;;;;27.63;15.40;;;1.90;99.90;;;;;;5022529;28;20249;-66
2024/01/17 08:05:12;;;;;;;20.90;14.37;;;1.90;99.90;;;;;;5020016;28;20215;-66
2024/01/17 08:07:37;;;;;;;21.40;15.10;;;1.90;99.90;;;;;;5012275;28;20681;-66
2024/01/17 08:10:03;;;;;;;20.30;14.90;;;1.90;99.90;;;;;;5018275;28;20445;-66
2024/01/17 08:12:29;;;;;;;23.53;17.03;;;2.00;99.90;;;;;;5016427;28;20685;-66
2024/01/17 08:14:55;;;;;;;27.87;17.47;;;2.00;99.90;;;;;;5024204;28;20517;-67
2024/01/17 08:17:20;;;;;;;21.87;16.27;;;2.00;99.90;;;;;;5024738;28;20423;-67
2024/01/17 08:19:46;;;;;;;20.97;15.20;;;2.00;99.90;;;;;;5024230;28;20185;-67
2024/01/17 08:22:12;;;;;;;22.00;15.63;;;2.00;99.90;;;;;;5021913;28;20800;-67
2024/01/17 08:24:38;;;;;;;32.63;21.03;;;2.00;99.90;;;;;;5014813;28;20452;-66
2024/01/17 08:27:04;;;;;;;21.93;17.07;;;2.10;99.90;;;;;;5023886;28;20231;-68
2024/01/17 08:29:29;;;;;;;26.90;17.17;;;2.10;99.90;;;;;;5021387;28;20189;-68
2024/01/17 08:31:55;;;;;;;22.40;17.47;;;2.10;99.90;;;;;;5012970;28;20635;-68
2024/01/17 08:34:21;;;;;;;21.37;15.73;;;2.10;99.90;;;;;;5016108;28;20210;-68
2024/01/17 08:36:47;;;;;;;23.80;16.47;;;2.10;99.90;;;;;;5019821;28;20196;-69
2024/01/17 08:39:12;;;;;;;23.43;16.00;;;2.20;99.90;;;;;;5023627;28;20550;-68
2024/01/17 08:41:41;;;;;;;28.83;16.87;;;2.20;99.90;;;;;;5016954;28;20510;-68
2024/01/17 08:44:07;;;;;;;28.40;16.60;;;2.20;99.90;;;;;;5025770;28;20211;-67
2024/01/17 08:46:32;;;;;;;23.40;17.37;;;2.20;99.90;;;;;;5017757;28;20747;-67
2024/01/17 08:48:58;;;;;;;25.10;15.63;;;2.20;99.90;;;;;;5023786;28;20191;-68
2024/01/17 08:51:24;;;;;;;27.10;17.87;;;2.20;99.90;;;;;;5020110;28;20689;-67
2024/01/17 08:53:50;;;;;;;26.87;17.10;;;2.30;99.90;;;;;;5020086;28;20223;-68
2024/01/17 08:56:16;;;;;;;28.80;18.47;;;2.40;99.90;;;;;;5022906;28;20242;-68
2024/01/17 08:58:44;;;;;;;27.60;16.53;;;2.40;99.90;;;;;;5027727;28;20503;-68
2024/01/17 09:01:10;;;;;;;20.63;15.60;;;2.50;99.90;;;;;;5024507;28;20630;-67
2024/01/17 09:03:36;;;;;;;24.10;16.30;;;2.60;99.90;;;;;;5021056;28;20449;-67
2024/01/17 09:06:02;;;;;;;25.53;16.27;;;2.60;99.90;;;;;;5020479;28;20184;-68
2024/01/17 09:08:28;;;;;;;26.33;17.10;;;2.60;99.90;;;;;;5017669;28;20472;-67
2024/01/17 09:10:54;;;;;;;19.97;15.57;;;2.70;99.90;;;;;;5023896;28;20518;-67
2024/01/17 09:13:20;;;;;;;23.33;16.40;;;2.70;99.90;;;;;;5019416;28;20942;-67
2024/01/17 09:15:46;;;;;;;23.10;15.33;;;2.70;99.90;;;;;;5024978;28;20176;-67
2024/01/17 09:18:11;;;;;;;22.07;17.13;;;2.80;99.90;;;;;;5017762;28;20767;-68
2024/01/17 09:20:37;;;;;;;22.60;15.87;;;2.80;99.90;;;;;;5014155;28;20208;-67
2024/01/17 09:23:03;;;;;;;23.77;17.00;;;2.70;99.90;;;;;;5023923;28;20531;-67
2024/01/17 09:25:29;;;;;;;24.47;17.53;;;2.70;99.90;;;;;;5015208;28;20185;-67
2024/01/17 09:27:55;;;;;;;23.80;16.37;;;2.70;99.90;;;;;;5021665;28;20513;-68
2024/01/17 09:30:21;;;;;;;21.63;15.17;;;2.80;99.90;;;;;;5017367;28;20432;-68
2024/01/17 09:32:47;;;;;;;22.57;16.73;;;2.70;99.90;;;;;;5016706;28;20610;-68
2024/01/17 09:35:14;;;;;;;20.80;15.00;;;2.80;99.90;;;;;;5015449;28;20197;-68
2024/01/17 09:37:40;;;;;;;24.70;17.50;;;2.80;99.90;;;;;;5014701;28;20458;-68
2024/01/17 09:40:08;;;;;;;24.10;17.40;;;2.70;99.90;;;;;;5021248;28;20423;-68
2024/01/17 09:42:33;;;;;;;20.10;15.90;;;2.70;99.90;;;;;;5014875;28;20181;-67
2024/01/17 09:45:00;;;;;;;22.20;16.37;;;2.70;99.90;;;;;;5013746;28;20497;-67
2024/01/17 09:47:26;;;;;;;24.43;17.17;;;2.70;99.90;;;;;;5017971;28;20204;-68
2024/01/17 09:49:52;;;;;;;23.07;16.67;;;2.70;99.90;;;;;;5010591;28;20416;-67
2024/01/17 09:52:22;;;;;;;24.40;17.50;;;2.70;99.90;;;;;;5020092;28;20233;-68
2024/01/17 09:54:50;;;;;;;26.23;18.97;;;2.70;99.90;;;;;;5014149;28;20272;-67
2024/01/17 09:57:22;;;;;;;24.40;17.17;;;2.80;99.90;;;;;;5025144;28;21101;-67
2024/01/17 09:59:57;;;;;;;23.80;17.27;;;2.80;99.90;;;;;;5019722;28;20990;-68
2024/01/17 10:02:24;;;;;;;22.27;17.43;;;2.90;99.90;;;;;;5009663;28;20795;-68
2024/01/17 10:04:50;;;;;;;23.40;16.90;;;2.90;99.90;;;;;;5019613;28;20558;-67
2024/01/17 10:07:17;;;;;;;25.07;18.60;;;2.90;99.90;;;;;;5012466;28;20991;-67
2024/01/17 10:09:44;;;;;;;25.23;17.60;;;2.90;99.90;;;;;;5011787;28;21194;-68
2024/01/17 10:12:10;;;;;;;27.13;18.70;;;2.90;99.90;;;;;;5016314;28;20428;-67
2024/01/17 10:14:36;;;;;;;23.83;17.20;;;2.90;99.90;;;;;;5021874;28;20503;-68
2024/01/17 10:17:02;;;;;;;21.40;15.93;;;2.90;99.90;;;;;;5017664;28;20414;-67
2024/01/17 10:19:28;;;;;;;29.00;17.90;;;3.00;99.90;;;;;;5023316;28;20184;-67
2024/01/17 10:21:53;;;;;;;22.73;16.40;;;3.00;99.90;;;;;;5016604;28;20470;-67
2024/01/17 10:24:19;;;;;;;22.47;16.67;;;3.00;99.90;;;;;;5013507;28;20205;-67
2024/01/17 10:26:45;;;;;;;24.23;17.57;;;3.10;99.90;;;;;;5010899;28;20296;-68
2024/01/17 10:29:11;;;;;;;22.10;16.03;;;3.10;99.90;;;;;;5017549;28;20209;-68
2024/01/17 10:31:40;;;;;;;22.73;15.10;;;3.20;99.90;;;;;;5016547;28;20911;-68
2024/01/17 10:34:07;;;;;;;21.03;16.33;;;3.20;99.90;;;;;;5014102;28;20566;-68
2024/01/17 10:36:34;;;;;;;22.43;16.90;;;3.20;99.90;;;;;;5015239;28;20418;-68
2024/01/17 10:39:03;;;;;;;23.20;18.30;;;3.10;99.90;;;;;;5018492;28;20951;-68
2024/01/17 10:41:29;;;;;;;21.20;17.43;;;2.90;99.90;;;;;;5016132;28;20453;-69
2024/01/17 10:43:57;;;;;;;24.07;17.23;;;2.90;99.90;;;;;;5012014;28;20976;-68
2024/01/17 10:46:23;;;;;;;25.93;18.30;;;2.90;99.90;;;;;;5011739;28;20220;-68
2024/01/17 10:48:50;;;;;;;28.00;18.87;;;2.90;99.90;;;;;;5010480;28;20427;-68
2024/01/17 10:51:23;;;;;;;23.40;18.60;;;2.90;99.90;;;;;;5011562;28;21005;-68
2024/01/17 10:53:53;;;;;;;23.20;18.00;;;2.90;99.90;;;;;;5009753;28;20500;-68
2024/01/17 10:56:20;;;;;;;24.00;17.77;;;2.90;99.90;;;;;;5015747;28;20440;-68
2024/01/17 10:58:50;;;;;;;24.10;17.73;;;2.90;99.90;;;;;;5011160;28;20416;-68
2024/01/17 11:01:25;;;;;;;30.50;17.80;;;2.90;99.90;;;;;;5018528;28;20431;-68
2024/01/17 11:03:56;;;;;;;29.63;19.20;;;2.80;99.90;;;;;;5011314;28;20520;-68
2024/01/17 11:06:23;;;;;;;30.53;20.20;;;2.80;99.90;;;;;;5006706;28;21194;-68
2024/01/17 11:08:50;;;;;;;23.27;17.27;;;2.80;99.90;;;;;;5008150;28;20934;-69
2024/01/17 11:11:16;;;;;;;29.83;18.40;;;2.70;99.90;;;;;;5014052;28;20448;-69
2024/01/17 11:13:44;;;;;;;22.40;18.70;;;2.70;99.90;;;;;;5006684;28;20882;-69
2024/01/17 11:16:13;;;;;;;28.43;20.40;;;2.60;99.90;;;;;;5017941;28;20929;-68
2024/01/17 11:18:40;;;;;;;25.40;19.40;;;2.60;99.90;;;;;;5015544;28;20492;-68
2024/01/17 11:21:07;;;;;;;28.00;18.60;;;2.70;99.90;;;;;;5016040;28;20418;-68
2024/01/17 11:23:40;;;;;;;26.73;17.53;;;2.80;99.90;;;;;;5015737;28;20899;-68
2024/01/17 11:26:08;;;;;;;26.83;19.10;;;2.80;99.90;;;;;;5014899;28;20435;-70
2024/01/17 11:29:09;;;;;;;24.37;18.70;;;2.80;99.90;;;;;;5018820;28;20435;-70
2024/01/17 11:32:03;;;;;;;21.23;17.00;;;2.80;99.90;;;;;;5009869;28;20432;-67
2024/01/17 11:34:29;;;;;;;24.37;18.67;;;2.80;99.90;;;;;;5014850;28;20434;-68
2024/01/17 11:36:55;;;;;;;23.90;17.90;;;2.80;99.90;;;;;;5012513;28;20510;-68
2024/01/17 11:39:22;;;;;;;25.10;18.97;;;2.90;99.90;;;;;;5015233;28;20531;-68
2024/01/17 11:41:49;;;;;;;21.80;18.00;;;2.90;99.90;;;;;;5012723;28;20183;-67
2024/01/17 11:44:17;;;;;;;27.57;18.70;;;3.10;99.90;;;;;;5011562;28;20502;-66
2024/01/17 11:46:51;;;;;;;22.77;17.97;;;3.10;99.90;;;;;;5009668;28;20466;-66
2024/01/17 11:49:36;;;;;;;29.77;19.53;;;3.10;99.90;;;;;;5020843;28;20423;-66
2024/01/17 11:52:02;;;;;;;23.67;17.97;;;3.20;99.90;;;;;;5016438;28;20944;-67
2024/01/17 11:54:28;;;;;;;23.87;18.77;;;3.30;99.90;;;;;;5007589;28;20471;-67
2024/01/17 11:56:56;;;;;;;23.57;17.30;;;3.30;99.90;;;;;;5011548;28;20188;-67
2024/01/17 11:59:22;;;;;;;25.33;18.40;;;3.30;99.90;;;;;;5009945;28;20199;-68
2024/01/17 12:01:49;;;;;;;24.10;18.37;;;3.40;99.90;;;;;;5010528;28;20439;-68
2024/01/17 12:04:17;;;;;;;23.43;18.60;;;3.40;99.90;;;;;;5005747;28;20267;-69
2024/01/17 12:06:48;;;;;;;21.80;17.87;;;3.40;99.90;;;;;;5008495;28;20473;-68
2024/01/17 12:09:20;;;;;;;21.17;18.70;;;3.40;99.90;;;;;;5009053;28;20425;-69
2024/01/17 12:11:48;;;;;;;23.33;17.70;;;3.40;99.90;;;;;;5005623;28;20447;-68
2024/01/17 12:14:17;;;;;;;23.57;18.03;;;3.40;99.90;;;;;;5010093;28;20894;-68
2024/01/17 12:16:45;;;;;;;21.53;17.67;;;3.40;99.90;;;;;;5005451;28;20904;-68
2024/01/17 12:19:11;;;;;;;23.43;17.20;;;3.40;99.90;;;;;;5007882;28;21169;-67
2024/01/17 12:21:37;;;;;;;19.60;15.70;;;3.40;99.90;;;;;;5006467;28;20486;-67
2024/01/17 12:24:04;;;;;;;21.47;16.23;;;3.40;99.90;;;;;;5011902;28;20482;-67
2024/01/17 12:26:33;;;;;;;22.87;16.30;;;3.50;99.90;;;;;;5010465;28;20477;-67
2024/01/17 12:29:08;;;;;;;20.50;16.83;;;3.40;99.90;;;;;;5007027;28;20542;-67
2024/01/17 12:31:34;;;;;;;20.60;16.37;;;3.50;99.90;;;;;;5011188;28;21113;-68
2024/01/17 12:33:59;;;;;;;21.27;15.80;;;3.50;99.90;;;;;;5006699;28;20467;-69
2024/01/17 12:36:25;;;;;;;20.37;16.37;;;3.60;99.90;;;;;;5007097;28;20761;-68